Aérodrome :
LOGIN :

S'inscrire | Disclaimer

   EN    FR    IT 

 










Légende :    VFR   VFR Marginal   IFR   IFR Intensif   IFR Très Intensif
Visi : 
Plafond : 
>= 8 km
>= 3000ft
5 à 8 km
1000 à 3000 ft
1500m à 5 km
500 à 1000 ft
800 à 1500m
200 à 500 ft
< 800m
< 200 ft
Symboles :   Orages  Brouillard  Fortes neiges  Fortes précipitations  Vent > 20 kt
SIGMETs :   Divers  Orages  Givrage  Turbulence  Onde Orograph.  Cendres Volcan.







- Altitude de l'aérodrome : 456 ft
- Code IATA : QPZ


LIMS - San Damiano Air Base Piacenza

DERNIER METAR :
  • 281055Z 31007KT 240V350 9999 TS FEW010 FEW020CB SCT025 28/19 Q1000 RMK BKN VIS MIN 9999 WIND THR30 28005KT BLU

METARs EXPIRÉS :
  • 280955Z 26011KT 210V290 9999 FEW020TCU SCT025 30/13 Q1001 RMK BKN VIS MIN 9999 WIND THR30 24009KT BLU

TAF TAF LIMS
Valide du 28 à 12h jusqu'au 28 à 21h UTC


281100Z 2812/2821 31010KT 9999 SCT020 SCT040
TEMPO 2812/2818 30015G27KT 6000 TSRA FEW020CB SCT030
Pas de NOTAMs connus pour ce terrain.
4 SIGMETs publiés pour la FIR Milano (LIMM) :
 
Orages fréquents avec grêle
LIMM SIGMET 7 VALID 281210/281510 LIMM- LIMM MILANO FIR FRQ TSGR FCST WI N4640 E01155 - N4634 E01325 - N4603 E01327 - N4532 E01323 - N4457 E01301 - N4443 E01230 - N4448 E01117 - N4453 E01003 - N4450 E00852 - N4444 E00742 - N4530 E00733 - N4552 E00811 - N4602 E00852 - N4618 E00951 - N4636 E01112 - N4640 E01155 TOP FL400 MOV NE NC=
Annulation du SIGMET 5
LIMM SIGMET 6 VALID 281210/281320 LIMM- LIMM MILANO FIR CNL SIGMET 5 281120/281320=
SIGMET 5  ANNULÉ :
Orages fréquents avec grêle
LIMM SIGMET 5 VALID 281120/281320 LIMM- LIMM MILANO FIR FRQ TSGR OBS WI N4514 E01013 - N4449 E01217 - N4416 E01242 - N4358 E01219 - N4402 E01112 - N4426 E00949 - N4441 E00839 - N4506 E00919 - N4514 E01013 TOP FL400 MOV NE NC=
Orages noyés dans la masse
LIMM SIGMET 4 VALID 281050/281450 LIMM- LIMM MILANO FIR EMBD TS FCST ENTIRE FIR TOP FL400 MOV NE NC=



MET'MAP, la Météo Aéronautique d'un coup d'oeil ! - Copyright ORBIFLY Décembre 2007 - Disclaimer

ORBIFLY MET'MAP TEAM :

Programmation & Développement : Alexandra Zaïnal
Conception & Développement : Baudouin d'Aumeries
Co-Programmation & Développement : Marc-Olivier Méhu
Soutien technique & logistique : Manuel Goepfert

Contact : metmap@orbifly.com




SOURCES & CREDITS :

   NOAA